Time;durP1;ratioP1;P1;durP2;ratioP2;P2;SDS_P1;SDS_P2;PMS_P1;PMS_P2;Temp;Humidity;BMP_temperature;BMP_pressure;BME280_temperature;BME280_humidity;BME280_pressure;Samples;Min_cycle;Max_cycle;Signal;HPM_P1;HPM_P2
2023/06/19 00:02:15;;;;;;;0.10;0.10;;;18.70;99.90;;;;;;5086097;28;20263;-78
2023/06/19 00:04:40;;;;;;;0.10;0.10;;;18.80;99.90;;;;;;5066498;28;20716;-78
2023/06/19 00:07:06;;;;;;;0.10;0.10;;;18.70;99.90;;;;;;5072536;28;20186;-78
2023/06/19 00:09:32;;;;;;;0.10;0.10;;;18.60;99.90;;;;;;5060782;28;20716;-78
2023/06/19 00:11:59;;;;;;;0.10;0.10;;;18.20;99.90;;;;;;5068682;28;20239;-78
2023/06/19 00:14:25;;;;;;;0.10;0.10;;;18.30;99.90;;;;;;5066635;28;20447;-78
2023/06/19 00:16:51;;;;;;;0.10;0.10;;;18.00;99.90;;;;;;5066370;28;20444;-78
2023/06/19 00:19:17;;;;;;;0.10;0.10;;;18.10;99.90;;;;;;5067853;28;20181;-78
2023/06/19 00:21:43;;;;;;;0.10;0.10;;;18.10;99.90;;;;;;5062425;28;20551;-78
2023/06/19 00:24:10;;;;;;;0.10;0.10;;;18.20;99.90;;;;;;5067733;28;20959;-78
2023/06/19 00:26:36;;;;;;;0.10;0.10;;;18.00;99.90;;;;;;5069321;28;20431;-78
2023/06/19 00:29:01;;;;;;;0.10;0.10;;;18.10;99.90;;;;;;5068408;28;20476;-78
2023/06/19 00:31:27;;;;;;;0.10;0.10;;;17.80;99.90;;;;;;5069426;28;20456;-78
2023/06/19 00:33:53;;;;;;;0.10;0.10;;;17.90;99.90;;;;;;5084757;28;20188;-78
2023/06/19 00:36:25;;;;;;;0.10;0.10;;;17.80;99.90;;;;;;5074217;28;20527;-78
2023/06/19 00:38:51;;;;;;;0.10;0.10;;;17.80;99.90;;;;;;5068310;28;20189;-78
2023/06/19 00:41:17;;;;;;;0.10;0.10;;;17.90;99.90;;;;;;5066463;28;20451;-78
2023/06/19 00:43:43;;;;;;;0.10;0.10;;;17.80;99.90;;;;;;5067036;28;20186;-78
2023/06/19 00:46:10;;;;;;;0.10;0.10;;;17.70;99.90;;;;;;5065473;28;20269;-78
2023/06/19 00:48:36;;;;;;;0.10;0.10;;;17.60;99.90;;;;;;5068620;28;20224;-78
2023/06/19 00:51:02;;;;;;;0.10;0.10;;;17.60;99.90;;;;;;5074302;28;20439;-79
2023/06/19 00:53:28;;;;;;;0.10;0.10;;;17.50;99.90;;;;;;5081293;28;20266;-78
2023/06/19 00:55:55;;;;;;;0.10;0.10;;;17.60;99.90;;;;;;5069489;28;20191;-78
2023/06/19 00:58:22;;;;;;;0.10;0.10;;;17.70;99.90;;;;;;5066050;28;20743;-78
2023/06/19 01:00:48;;;;;;;0.10;0.10;;;17.70;99.90;;;;;;5061040;28;20432;-78
2023/06/19 01:03:14;;;;;;;0.10;0.10;;;17.80;99.90;;;;;;5060121;28;20459;-78
2023/06/19 01:05:40;;;;;;;0.10;0.10;;;18.00;99.90;;;;;;5087375;28;20474;-78
2023/06/19 01:08:10;;;;;;;0.10;0.10;;;18.10;99.90;;;;;;5067178;28;20459;-78
2023/06/19 01:10:43;;;;;;;0.10;0.10;;;17.90;99.90;;;;;;5071832;28;20193;-79
2023/06/19 01:13:16;;;;;;;0.10;0.10;;;18.20;99.90;;;;;;5088511;28;22289;-78
2023/06/19 01:15:42;;;;;;;0.10;0.10;;;17.90;99.90;;;;;;5070506;28;20452;-78
2023/06/19 01:18:11;;;;;;;0.10;0.10;;;17.90;99.90;;;;;;5082726;28;20447;-79
2023/06/19 01:20:37;;;;;;;0.10;0.10;;;18.20;99.90;;;;;;5081056;28;20280;-79
2023/06/19 01:23:09;;;;;;;0.10;0.10;;;18.30;99.90;;;;;;5089772;28;20453;-79
2023/06/19 01:25:38;;;;;;;0.10;0.10;;;18.30;99.90;;;;;;5084800;28;20442;-78
2023/06/19 01:28:07;;;;;;;0.10;0.10;;;18.30;99.90;;;;;;5087913;28;20454;-78
2023/06/19 01:30:34;;;;;;;0.10;0.10;;;18.20;99.90;;;;;;5082311;28;20522;-79
2023/06/19 01:33:25;;;;;;;0.10;0.10;;;18.00;99.90;;;;;;5081487;28;20435;-78
2023/06/19 01:35:51;;;;;;;0.10;0.10;;;18.10;99.90;;;;;;5091242;28;20474;-78
2023/06/19 01:38:20;;;;;;;0.10;0.10;;;18.00;99.90;;;;;;5086700;28;20438;-78
2023/06/19 01:40:48;;;;;;;0.10;0.10;;;17.80;99.90;;;;;;5090783;28;20450;-79
2023/06/19 01:43:15;;;;;;;0.10;0.10;;;17.90;99.90;;;;;;5090625;28;20470;-79
2023/06/19 01:45:41;;;;;;;0.10;0.10;;;17.70;99.90;;;;;;5090768;28;20438;-78
2023/06/19 01:48:08;;;;;;;0.10;0.10;;;17.60;99.90;;;;;;5091172;28;20501;-78
2023/06/19 01:50:33;;;;;;;0.10;0.10;;;17.60;99.90;;;;;;5086512;28;20198;-78
2023/06/19 01:52:59;;;;;;;0.10;0.10;;;17.50;99.90;;;;;;5092100;28;20499;-78
2023/06/19 01:55:25;;;;;;;0.10;0.10;;;17.40;99.90;;;;;;5085220;28;20274;-78
2023/06/19 01:57:51;;;;;;;0.10;0.10;;;17.30;99.90;;;;;;5073937;28;20216;-79
2023/06/19 02:00:17;;;;;;;0.10;0.10;;;17.20;99.90;;;;;;5088959;28;20185;-78
2023/06/19 02:02:43;;;;;;;0.10;0.10;;;17.20;99.90;;;;;;5090202;28;20264;-78
2023/06/19 02:05:09;;;;;;;0.10;0.10;;;17.30;99.90;;;;;;5104757;28;20632;-79
2023/06/19 02:07:34;;;;;;;0.10;0.10;;;17.30;99.90;;;;;;5088980;28;20181;-79
2023/06/19 02:10:00;;;;;;;0.10;0.10;;;17.60;99.90;;;;;;5090420;28;20542;-78
2023/06/19 02:12:26;;;;;;;0.10;0.10;;;17.40;99.90;;;;;;5074460;28;20790;-78
2023/06/19 02:14:51;;;;;;;0.10;0.10;;;17.60;99.90;;;;;;5090646;28;20688;-78
2023/06/19 02:17:17;;;;;;;0.10;0.10;;;17.50;99.90;;;;;;5087381;28;20241;-78
2023/06/19 02:19:42;;;;;;;0.10;0.10;;;17.60;99.90;;;;;;5090464;28;20201;-79
2023/06/19 02:22:08;;;;;;;0.10;0.10;;;17.50;99.90;;;;;;5090379;28;20185;-78
2023/06/19 02:24:34;;;;;;;0.10;0.10;;;17.50;99.90;;;;;;5091456;28;20197;-78
2023/06/19 02:27:00;;;;;;;0.10;0.10;;;17.70;99.90;;;;;;5091083;28;20189;-79
2023/06/19 02:29:26;;;;;;;0.10;0.10;;;17.70;99.90;;;;;;5074657;28;20377;-79
2023/06/19 02:31:51;;;;;;;0.10;0.10;;;18.00;99.90;;;;;;5095137;28;20533;-78
2023/06/19 02:34:17;;;;;;;0.10;0.10;;;17.80;99.90;;;;;;5089219;28;20657;-78
2023/06/19 02:36:43;;;;;;;0.10;0.10;;;17.80;99.90;;;;;;5090093;28;20266;-78
2023/06/19 02:39:09;;;;;;;0.10;0.10;;;17.80;99.90;;;;;;5091880;28;20188;-79
2023/06/19 02:41:34;;;;;;;0.10;0.10;;;18.10;99.90;;;;;;5092601;28;20264;-78
2023/06/19 02:44:00;;;;;;;0.10;0.10;;;17.90;99.90;;;;;;5092113;28;20585;-78
2023/06/19 02:46:27;;;;;;;0.10;0.10;;;18.00;99.90;;;;;;5070376;28;21031;-79
2023/06/19 02:48:52;;;;;;;0.10;0.10;;;18.30;99.90;;;;;;5097247;28;20216;-79
2023/06/19 02:51:18;;;;;;;0.10;0.10;;;18.40;99.90;;;;;;5097417;28;20439;-79
2023/06/19 02:53:43;;;;;;;0.10;0.10;;;18.50;99.90;;;;;;5072864;28;20290;-79
2023/06/19 02:56:11;;;;;;;0.10;0.10;;;18.30;99.90;;;;;;5095212;28;20207;-79
2023/06/19 02:58:37;;;;;;;0.10;0.10;;;18.40;99.90;;;;;;5077362;28;20192;-79
2023/06/19 03:01:03;;;;;;;0.10;0.10;;;18.50;99.90;;;;;;5084818;28;20427;-78
2023/06/19 03:03:29;;;;;;;0.10;0.10;;;18.50;99.90;;;;;;5071371;28;20439;-79
2023/06/19 03:05:55;;;;;;;0.10;0.10;;;18.40;99.90;;;;;;5089662;28;20520;-78
2023/06/19 03:08:21;;;;;;;0.10;0.10;;;18.30;99.90;;;;;;5090873;28;20470;-79
2023/06/19 03:10:46;;;;;;;0.10;0.10;;;18.50;99.90;;;;;;5091880;28;20576;-79
2023/06/19 03:13:13;;;;;;;0.10;0.00;;;18.60;99.90;;;;;;5090615;28;20195;-79
2023/06/19 03:15:39;;;;;;;0.10;0.10;;;18.60;99.90;;;;;;5078684;28;20184;-78
2023/06/19 03:18:07;;;;;;;0.10;0.10;;;18.70;99.90;;;;;;5088321;28;20476;-79
2023/06/19 03:20:32;;;;;;;0.10;0.10;;;18.70;99.90;;;;;;5085181;28;20185;-78
2023/06/19 03:22:58;;;;;;;0.10;0.10;;;18.70;99.90;;;;;;5090118;28;20438;-79
2023/06/19 03:25:23;;;;;;;0.10;0.10;;;18.90;99.90;;;;;;5081140;28;20528;-79
2023/06/19 03:27:49;;;;;;;0.10;0.10;;;18.80;99.90;;;;;;5099914;28;20188;-79
2023/06/19 03:30:18;;;;;;;0.10;0.10;;;18.80;99.90;;;;;;5089364;28;20266;-78
2023/06/19 03:32:44;;;;;;;0.10;0.10;;;18.80;99.90;;;;;;5088316;28;20177;-79
2023/06/19 03:35:10;;;;;;;0.10;0.10;;;18.90;99.90;;;;;;5089688;28;20491;-79
2023/06/19 03:37:36;;;;;;;0.10;0.10;;;18.80;99.90;;;;;;5082537;28;20196;-78
2023/06/19 03:40:03;;;;;;;0.10;0.10;;;18.80;99.90;;;;;;5091688;28;20442;-78
2023/06/19 03:42:28;;;;;;;0.10;0.10;;;18.80;99.90;;;;;;5088126;28;20189;-78
2023/06/19 03:44:54;;;;;;;0.10;0.00;;;18.80;99.90;;;;;;5070620;28;20580;-78
2023/06/19 03:47:19;;;;;;;0.10;0.10;;;18.80;99.90;;;;;;5086747;28;20196;-79
2023/06/19 03:49:45;;;;;;;0.10;0.10;;;18.90;99.90;;;;;;5088774;28;20307;-79
2023/06/19 03:52:10;;;;;;;0.10;0.10;;;18.90;99.90;;;;;;5068039;28;20674;-78
2023/06/19 03:54:36;;;;;;;0.10;0.10;;;18.90;99.90;;;;;;5071468;28;20193;-78
2023/06/19 03:57:01;;;;;;;0.10;0.10;;;18.90;99.90;;;;;;5088042;28;20612;-78
2023/06/19 03:59:27;;;;;;;0.10;0.10;;;18.90;99.90;;;;;;5083716;28;20242;-78
2023/06/19 04:01:52;;;;;;;0.10;0.10;;;18.90;99.90;;;;;;5086126;28;20230;-78
2023/06/19 04:04:18;;;;;;;0.10;0.00;;;18.90;99.90;;;;;;5084087;28;20177;-78
2023/06/19 04:06:43;;;;;;;0.10;0.10;;;19.00;99.90;;;;;;5069648;28;20322;-78
2023/06/19 04:09:09;;;;;;;0.10;0.10;;;19.00;99.90;;;;;;5081104;28;20216;-78
2023/06/19 04:11:34;;;;;;;0.10;0.10;;;18.90;99.90;;;;;;5088953;28;20933;-78
2023/06/19 04:14:00;;;;;;;0.10;0.10;;;19.00;99.90;;;;;;5087146;28;20274;-78
2023/06/19 04:16:25;;;;;;;0.10;0.10;;;18.90;99.90;;;;;;5087380;28;20199;-78
2023/06/19 04:18:51;;;;;;;0.10;0.10;;;19.00;99.90;;;;;;5069356;28;20718;-78
2023/06/19 04:21:16;;;;;;;0.10;0.10;;;18.90;99.90;;;;;;5091126;28;20205;-78
2023/06/19 04:23:42;;;;;;;0.10;0.10;;;18.90;99.90;;;;;;5093422;28;20192;-78
2023/06/19 04:26:07;;;;;;;0.10;0.10;;;18.90;99.90;;;;;;5092883;28;20201;-78
2023/06/19 04:28:33;;;;;;;0.10;0.10;;;19.10;99.90;;;;;;5088121;28;20205;-78
2023/06/19 04:31:01;;;;;;;0.10;0.10;;;19.00;99.90;;;;;;5067046;28;20239;-79
2023/06/19 04:33:28;;;;;;;0.10;0.10;;;19.00;99.90;;;;;;5091718;28;20181;-79
2023/06/19 04:35:54;;;;;;;0.10;0.10;;;18.90;99.90;;;;;;5089323;28;20442;-78
2023/06/19 04:38:23;;;;;;;0.10;0.10;;;19.00;99.90;;;;;;5089288;28;20437;-78
2023/06/19 04:40:52;;;;;;;0.10;0.10;;;19.00;99.90;;;;;;5087351;28;20189;-79
2023/06/19 04:43:17;;;;;;;0.10;0.10;;;19.00;99.90;;;;;;5083764;28;20521;-79
2023/06/19 04:45:44;;;;;;;0.10;0.10;;;19.10;99.90;;;;;;5089716;28;20903;-78
2023/06/19 04:48:11;;;;;;;0.10;0.10;;;19.00;99.90;;;;;;5096172;28;20659;-79
2023/06/19 04:50:36;;;;;;;0.10;0.10;;;19.10;99.90;;;;;;5095645;28;20465;-79
2023/06/19 04:53:02;;;;;;;0.10;0.10;;;19.10;99.90;;;;;;5091145;28;20419;-79
2023/06/19 04:55:28;;;;;;;0.10;0.10;;;19.20;99.90;;;;;;5070871;28;20192;-75
2023/06/19 04:57:53;;;;;;;0.10;0.10;;;19.10;99.90;;;;;;5087363;28;20191;-78
2023/06/19 05:00:19;;;;;;;0.10;0.10;;;19.10;99.90;;;;;;5084130;28;20183;-78
2023/06/19 05:02:47;;;;;;;0.10;0.10;;;19.10;99.90;;;;;;5086150;28;20271;-76
2023/06/19 05:05:13;;;;;;;0.10;0.10;;;19.20;99.90;;;;;;5092006;28;20941;-78
2023/06/19 05:07:39;;;;;;;0.10;0.10;;;19.10;99.90;;;;;;5084312;28;20522;-78
2023/06/19 05:10:06;;;;;;;0.10;0.10;;;19.10;99.90;;;;;;5086716;28;20478;-76
2023/06/19 05:12:34;;;;;;;0.10;0.10;;;19.20;99.90;;;;;;5085834;28;20435;-78
2023/06/19 05:15:00;;;;;;;0.10;0.10;;;19.20;99.90;;;;;;5089221;28;20461;-79
2023/06/19 05:17:25;;;;;;;0.10;0.10;;;19.20;99.90;;;;;;5087792;28;22281;-78
2023/06/19 05:19:51;;;;;;;0.10;0.10;;;19.30;99.90;;;;;;5093772;28;20193;-76
2023/06/19 05:22:18;;;;;;;0.10;0.10;;;19.20;99.90;;;;;;5090062;28;20185;-76
2023/06/19 05:24:44;;;;;;;0.10;0.10;;;19.20;99.90;;;;;;5098228;28;20295;-78
2023/06/19 05:27:09;;;;;;;0.10;0.10;;;19.30;99.90;;;;;;5094223;28;20597;-77
2023/06/19 05:29:35;;;;;;;0.10;0.10;;;19.20;99.90;;;;;;5065960;28;20307;-76
2023/06/19 05:32:00;;;;;;;0.10;0.10;;;19.20;99.90;;;;;;5088615;28;20193;-78
2023/06/19 05:34:27;;;;;;;0.10;0.00;;;19.20;99.90;;;;;;5087271;28;20192;-78
2023/06/19 05:36:53;;;;;;;0.10;0.10;;;19.20;99.90;;;;;;5072648;28;20180;-78
2023/06/19 05:39:18;;;;;;;0.10;0.10;;;19.20;99.90;;;;;;5090558;28;20438;-78
2023/06/19 05:41:45;;;;;;;0.10;0.10;;;19.20;99.90;;;;;;5090321;28;20233;-79
2023/06/19 05:44:14;;;;;;;0.10;0.10;;;19.20;99.90;;;;;;5088598;28;20181;-78
2023/06/19 05:46:40;;;;;;;0.10;0.10;;;19.30;99.90;;;;;;5070661;28;20430;-79
2023/06/19 05:49:06;;;;;;;0.10;0.10;;;19.30;99.90;;;;;;5088837;28;20552;-75
2023/06/19 05:51:31;;;;;;;0.10;0.10;;;19.30;99.90;;;;;;5090104;28;20209;-79
2023/06/19 05:54:02;;;;;;;0.10;0.10;;;19.30;99.90;;;;;;5091942;28;20207;-79
2023/06/19 05:56:28;;;;;;;0.10;0.10;;;19.30;99.90;;;;;;5067492;28;20219;-78
2023/06/19 05:58:54;;;;;;;0.10;0.10;;;19.40;99.90;;;;;;5083777;28;20535;-78
2023/06/19 06:01:19;;;;;;;0.10;0.10;;;19.30;99.90;;;;;;5061326;28;20269;-79
2023/06/19 06:03:45;;;;;;;0.10;0.10;;;19.40;99.90;;;;;;5092538;28;20228;-79
2023/06/19 06:06:10;;;;;;;0.10;0.10;;;19.40;99.90;;;;;;5085125;28;20274;-77
2023/06/19 06:08:36;;;;;;;0.10;0.10;;;19.40;99.90;;;;;;5088955;28;20220;-78
2023/06/19 06:11:02;;;;;;;0.10;0.10;;;19.50;99.90;;;;;;5087553;28;20211;-78
2023/06/19 06:13:27;;;;;;;0.10;0.00;;;19.50;99.90;;;;;;5103517;28;20351;-79
2023/06/19 06:15:53;;;;;;;0.10;0.10;;;19.50;99.90;;;;;;5090779;28;20188;-79
2023/06/19 06:18:19;;;;;;;0.10;0.10;;;19.50;99.90;;;;;;5082118;28;20275;-79
2023/06/19 06:20:44;;;;;;;0.10;0.10;;;19.50;99.90;;;;;;5091872;28;20188;-77
2023/06/19 06:23:10;;;;;;;0.10;0.10;;;19.40;99.90;;;;;;5058288;28;20601;-78
2023/06/19 06:25:35;;;;;;;0.10;0.10;;;19.50;99.90;;;;;;5093147;28;20188;-78
2023/06/19 06:28:01;;;;;;;0.10;0.00;;;19.50;99.90;;;;;;5081755;28;20189;-78
2023/06/19 06:30:28;;;;;;;0.10;0.10;;;19.50;99.90;;;;;;5081467;28;20201;-79
2023/06/19 06:32:53;;;;;;;0.10;0.00;;;19.50;99.90;;;;;;5101762;28;20178;-78
2023/06/19 06:35:19;;;;;;;0.10;0.10;;;19.60;99.90;;;;;;5091576;28;20527;-78
2023/06/19 06:37:46;;;;;;;0.10;0.00;;;19.50;99.90;;;;;;5091716;28;20196;-79
2023/06/19 06:40:12;;;;;;;0.10;0.10;;;19.60;99.90;;;;;;5075429;28;20239;-79
2023/06/19 06:42:38;;;;;;;0.10;0.00;;;19.50;99.90;;;;;;5093871;28;20443;-76
2023/06/19 06:45:07;;;;;;;0.10;0.00;;;19.70;99.90;;;;;;5094686;28;20481;-78
2023/06/19 06:47:36;;;;;;;0.10;0.10;;;19.60;99.90;;;;;;5097799;28;20450;-78
2023/06/19 06:50:02;;;;;;;0.10;0.10;;;19.60;99.90;;;;;;5090969;28;20486;-79
2023/06/19 06:52:27;;;;;;;0.10;0.00;;;19.60;99.90;;;;;;5071457;28;20507;-79
2023/06/19 06:54:53;;;;;;;0.10;0.00;;;19.70;99.90;;;;;;5085106;28;20193;-78
2023/06/19 06:57:19;;;;;;;0.10;0.00;;;19.60;99.90;;;;;;5090956;28;20267;-78
2023/06/19 06:59:44;;;;;;;0.10;0.00;;;19.60;99.90;;;;;;5091085;28;20204;-78
2023/06/19 07:02:10;;;;;;;0.10;0.00;;;19.80;99.90;;;;;;5092923;28;20244;-78
2023/06/19 07:04:35;;;;;;;0.10;0.10;;;19.80;99.90;;;;;;5083388;28;20710;-79
2023/06/19 07:07:03;;;;;;;0.10;0.00;;;19.80;99.90;;;;;;5094571;28;20250;-77
2023/06/19 07:09:29;;;;;;;0.10;0.10;;;19.80;99.90;;;;;;5064045;28;20213;-78
2023/06/19 07:11:54;;;;;;;0.10;0.10;;;19.80;99.90;;;;;;5082477;28;20492;-78
2023/06/19 07:14:20;;;;;;;0.10;0.00;;;20.00;99.90;;;;;;5077389;28;22230;-79
2023/06/19 07:16:46;;;;;;;0.10;0.10;;;19.80;99.90;;;;;;5092912;28;20185;-78
2023/06/19 07:19:12;;;;;;;0.10;0.00;;;20.00;99.90;;;;;;5068016;28;20439;-78
2023/06/19 07:21:38;;;;;;;0.10;0.00;;;20.00;99.90;;;;;;5083116;28;20177;-78
2023/06/19 07:24:04;;;;;;;0.10;0.10;;;20.00;99.90;;;;;;5087075;28;20957;-79
2023/06/19 07:26:30;;;;;;;0.10;0.10;;;20.00;99.90;;;;;;5080472;28;20188;-78
2023/06/19 07:28:56;;;;;;;0.10;0.10;;;20.00;99.90;;;;;;5068606;28;20557;-78
2023/06/19 07:31:21;;;;;;;0.10;0.10;;;20.00;99.90;;;;;;5085364;28;20563;-77
2023/06/19 07:33:47;;;;;;;0.10;0.00;;;20.10;99.90;;;;;;5088056;28;20629;-78
2023/06/19 07:36:14;;;;;;;0.10;0.00;;;20.00;99.90;;;;;;5086716;28;20637;-79
2023/06/19 07:38:40;;;;;;;0.10;0.10;;;20.00;99.90;;;;;;5087841;28;20215;-79
2023/06/19 07:41:07;;;;;;;0.10;0.10;;;20.00;99.90;;;;;;5085082;28;20439;-79
2023/06/19 07:43:32;;;;;;;0.10;0.00;;;19.90;99.90;;;;;;5087915;28;20439;-78
2023/06/19 07:45:59;;;;;;;0.10;0.10;;;19.90;99.90;;;;;;5081440;28;20540;-77
2023/06/19 07:48:24;;;;;;;0.10;0.10;;;19.70;99.90;;;;;;5082264;28;20256;-77
2023/06/19 07:50:50;;;;;;;0.10;0.10;;;19.60;99.90;;;;;;5060268;28;21247;-77
2023/06/19 07:53:15;;;;;;;0.10;0.10;;;19.50;99.90;;;;;;5082786;28;20181;-78
2023/06/19 07:55:41;;;;;;;0.10;0.10;;;19.50;99.90;;;;;;5063985;28;20193;-78
2023/06/19 07:58:07;;;;;;;0.10;0.10;;;19.30;99.90;;;;;;5084057;28;20592;-78
2023/06/19 08:00:32;;;;;;;0.10;0.10;;;19.20;99.90;;;;;;5084159;28;20264;-78
2023/06/19 08:02:58;;;;;;;0.10;0.10;;;19.30;99.90;;;;;;5083295;28;20188;-78
2023/06/19 08:05:23;;;;;;;0.10;0.10;;;19.40;99.90;;;;;;5060662;28;20693;-78
2023/06/19 08:07:49;;;;;;;0.10;0.10;;;19.30;99.90;;;;;;5063138;28;20664;-77
2023/06/19 08:10:14;;;;;;;0.10;0.10;;;19.30;99.90;;;;;;5065245;28;21163;-78
2023/06/19 08:12:44;;;;;;;0.10;0.10;;;19.30;99.90;;;;;;5062103;28;20270;-79
2023/06/19 08:15:11;;;;;;;0.10;0.10;;;19.20;99.90;;;;;;5064614;28;20812;-79
2023/06/19 08:17:37;;;;;;;0.10;0.10;;;19.00;99.90;;;;;;5059243;28;20455;-78
2023/06/19 08:20:05;;;;;;;0.10;0.10;;;19.00;99.90;;;;;;5069725;28;20436;-79
2023/06/19 08:22:30;;;;;;;0.10;0.10;;;18.90;99.90;;;;;;5057551;28;20186;-78
2023/06/19 08:24:56;;;;;;;0.10;0.10;;;18.80;99.90;;;;;;5077027;28;21107;-78
2023/06/19 08:27:21;;;;;;;0.10;0.10;;;18.70;99.90;;;;;;5052218;28;20198;-77
2023/06/19 08:29:47;;;;;;;0.10;0.10;;;18.70;99.90;;;;;;5058144;28;20221;-78
2023/06/19 08:32:12;;;;;;;0.10;0.10;;;18.70;99.90;;;;;;5064059;28;20186;-78
2023/06/19 08:34:38;;;;;;;0.10;0.10;;;18.60;99.90;;;;;;5069224;28;20204;-78
2023/06/19 08:37:05;;;;;;;0.10;0.10;;;18.60;99.90;;;;;;5065527;28;20257;-78
2023/06/19 08:39:30;;;;;;;0.10;0.10;;;18.80;99.90;;;;;;5066664;28;20815;-78
2023/06/19 08:41:56;;;;;;;0.10;0.10;;;18.60;99.90;;;;;;5067515;28;20443;-78
2023/06/19 08:44:21;;;;;;;0.10;0.10;;;18.70;99.90;;;;;;5068616;28;20189;-79
2023/06/19 08:46:47;;;;;;;0.10;0.00;;;18.80;99.90;;;;;;5066628;28;20190;-78
2023/06/19 08:49:13;;;;;;;0.10;0.10;;;18.90;99.90;;;;;;5067046;28;20319;-78
2023/06/19 08:51:40;;;;;;;0.10;0.00;;;18.90;99.90;;;;;;5067843;28;20194;-79
2023/06/19 08:54:06;;;;;;;0.10;0.10;;;19.00;99.90;;;;;;5065335;28;20292;-79
2023/06/19 08:56:34;;;;;;;0.10;0.10;;;19.10;99.90;;;;;;5068892;28;20935;-79
2023/06/19 08:59:16;;;;;;;0.10;0.10;;;19.20;99.90;;;;;;5066167;28;21324;-78
2023/06/19 09:01:51;;;;;;;0.10;0.10;;;19.20;99.90;;;;;;5072360;28;21123;-75
2023/06/19 09:04:19;;;;;;;0.10;0.10;;;19.50;99.90;;;;;;5099508;28;20443;-77
2023/06/19 09:06:58;;;;;;;0.10;0.00;;;19.60;99.90;;;;;;5093974;28;20462;-77
2023/06/19 09:09:25;;;;;;;0.10;0.10;;;19.90;99.90;;;;;;5086362;28;20518;-77
2023/06/19 09:12:06;;;;;;;0.10;0.10;;;20.20;99.90;;;;;;5094397;28;20446;-78
2023/06/19 09:14:38;;;;;;;0.10;0.10;;;20.40;99.90;;;;;;5100389;28;20878;-77
2023/06/19 09:17:05;;;;;;;0.10;0.07;;;20.50;99.90;;;;;;5071817;28;20889;-77
2023/06/19 09:19:32;;;;;;;0.10;0.10;;;20.60;99.90;;;;;;5087637;28;20451;-76
2023/06/19 09:22:06;;;;;;;0.10;0.00;;;20.70;99.90;;;;;;5066722;28;20955;-78
2023/06/19 09:24:38;;;;;;;0.10;0.00;;;20.80;99.90;;;;;;5089609;28;20470;-77
2023/06/19 09:27:13;;;;;;;0.10;0.00;;;21.00;99.90;;;;;;5084870;28;20474;-78
2023/06/19 09:29:40;;;;;;;0.10;0.10;;;20.90;99.90;;;;;;5097218;28;20480;-76
2023/06/19 09:32:16;;;;;;;0.10;0.10;;;21.30;99.90;;;;;;5091460;28;20449;-77
2023/06/19 09:34:42;;;;;;;0.10;0.00;;;21.70;99.90;;;;;;5086345;28;20438;-77
2023/06/19 09:37:08;;;;;;;0.10;0.00;;;21.80;99.90;;;;;;5076274;28;20457;-75
2023/06/19 09:39:37;;;;;;;0.10;0.00;;;22.10;99.90;;;;;;5070224;28;20185;-77
2023/06/19 09:42:03;;;;;;;0.10;0.00;;;22.50;99.90;;;;;;5070131;28;20487;-76
2023/06/19 09:44:31;;;;;;;0.10;0.00;;;23.00;99.90;;;;;;5089755;28;20438;-76
2023/06/19 09:46:59;;;;;;;0.10;0.00;;;23.20;99.90;;;;;;5088883;28;21261;-76
2023/06/19 09:49:31;;;;;;;0.10;0.10;;;22.60;99.90;;;;;;5099611;28;20602;-75
2023/06/19 09:51:57;;;;;;;0.10;0.00;;;22.80;99.90;;;;;;5086415;28;20474;-76
2023/06/19 09:54:24;;;;;;;0.10;0.00;;;23.20;99.90;;;;;;5091642;28;20443;-77
2023/06/19 09:56:51;;;;;;;0.10;0.00;;;23.50;99.90;;;;;;5073681;28;20695;-76
2023/06/19 09:59:18;;;;;;;0.10;0.00;;;23.70;99.90;;;;;;5089322;28;20454;-76
2023/06/19 10:01:45;;;;;;;0.10;0.00;;;23.90;99.90;;;;;;5070618;28;21076;-76
2023/06/19 10:04:11;;;;;;;0.10;0.00;;;24.20;99.90;;;;;;5094469;28;21017;-75
2023/06/19 10:06:48;;;;;;;0.10;0.00;;;24.30;99.90;;;;;;5112712;28;20458;-76
2023/06/19 10:09:18;;;;;;;0.10;0.00;;;24.20;99.90;;;;;;5093290;28;20507;-76
2023/06/19 10:11:50;;;;;;;0.10;0.00;;;24.30;99.90;;;;;;5105612;28;20431;-76
2023/06/19 10:14:20;;;;;;;0.10;0.00;;;23.80;99.90;;;;;;5092870;28;20415;-77
2023/06/19 10:16:45;;;;;;;0.10;0.00;;;23.80;99.90;;;;;;5090390;28;20435;-77
2023/06/19 10:19:16;;;;;;;0.10;0.00;;;23.80;99.90;;;;;;5074294;28;20427;-77
2023/06/19 10:21:50;;;;;;;0.10;0.00;;;23.70;99.90;;;;;;5073745;28;20185;-77
2023/06/19 10:24:19;;;;;;;0.10;0.00;;;24.00;99.90;;;;;;5106439;28;20441;-76
2023/06/19 10:26:57;;;;;;;0.10;0.00;;;23.90;99.90;;;;;;5077263;28;20500;-77
2023/06/19 10:29:22;;;;;;;0.10;0.00;;;24.10;99.90;;;;;;5090702;28;20482;-77
2023/06/19 10:31:48;;;;;;;0.10;0.00;;;23.90;99.90;;;;;;5093084;28;20422;-76
2023/06/19 10:34:14;;;;;;;0.10;0.00;;;24.00;99.90;;;;;;5098696;28;20596;-77
2023/06/19 10:36:39;;;;;;;0.10;0.00;;;24.20;99.90;;;;;;5072823;28;20177;-77
2023/06/19 10:39:05;;;;;;;0.10;0.00;;;24.10;99.90;;;;;;5089199;28;20192;-76
2023/06/19 10:41:31;;;;;;;0.10;0.00;;;24.50;99.90;;;;;;5091925;28;20177;-75
2023/06/19 10:43:59;;;;;;;0.10;0.00;;;24.60;99.90;;;;;;5089262;28;20431;-76
2023/06/19 10:46:30;;;;;;;0.10;0.00;;;24.40;99.90;;;;;;5090435;28;20435;-75
2023/06/19 10:49:00;;;;;;;0.10;0.00;;;24.60;99.90;;;;;;5091226;28;20499;-75
2023/06/19 10:51:30;;;;;;;0.10;0.00;;;25.60;99.90;;;;;;5091244;28;20454;-74
2023/06/19 10:53:56;;;;;;;0.10;0.00;;;25.80;99.90;;;;;;5072848;28;20523;-76
2023/06/19 10:56:23;;;;;;;0.10;0.00;;;25.60;99.90;;;;;;5091135;28;20447;-74
2023/06/19 10:58:48;;;;;;;0.10;0.00;;;25.70;99.90;;;;;;5070531;28;20435;-75
2023/06/19 11:01:14;;;;;;;0.10;0.00;;;25.80;99.90;;;;;;5088834;28;20450;-75
2023/06/19 11:03:39;;;;;;;0.10;0.00;;;25.30;99.90;;;;;;5074572;28;20188;-75
2023/06/19 11:06:05;;;;;;;0.10;0.00;;;25.00;99.90;;;;;;5068953;28;20597;-75
2023/06/19 11:08:30;;;;;;;0.10;0.00;;;25.10;99.90;;;;;;5081845;28;20217;-75
2023/06/19 11:10:56;;;;;;;0.10;0.00;;;25.40;99.90;;;;;;5072663;28;20192;-74
2023/06/19 11:13:22;;;;;;;0.10;0.00;;;25.60;99.90;;;;;;5072356;28;20721;-75
2023/06/19 11:15:51;;;;;;;0.10;0.00;;;25.60;99.90;;;;;;5068279;28;20657;-75
2023/06/19 11:18:18;;;;;;;0.10;0.00;;;25.30;99.90;;;;;;5062144;28;20181;-76
2023/06/19 11:21:01;;;;;;;0.10;0.00;;;25.10;99.90;;;;;;5060809;28;20493;-76
2023/06/19 11:23:30;;;;;;;0.10;0.00;;;25.20;99.90;;;;;;5071092;28;20460;-74
2023/06/19 11:26:05;;;;;;;0.10;0.00;;;25.10;99.90;;;;;;5064215;28;21252;-76
2023/06/19 11:28:31;;;;;;;0.10;0.00;;;25.70;99.90;;;;;;5065990;28;20474;-74
2023/06/19 11:31:02;;;;;;;0.10;0.00;;;26.40;99.90;;;;;;5071166;28;20799;-76
2023/06/19 11:33:29;;;;;;;0.10;0.00;;;27.30;99.90;;;;;;5066472;28;20205;-74
2023/06/19 11:35:58;;;;;;;0.10;0.00;;;27.90;99.90;;;;;;5069218;28;20491;-75
2023/06/19 11:38:26;;;;;;;0.10;0.00;;;28.60;99.90;;;;;;5070161;28;20467;-75
2023/06/19 11:40:52;;;;;;;0.10;0.00;;;28.90;99.90;;;;;;5068209;28;20448;-73
2023/06/19 11:43:29;;;;;;;0.10;0.00;;;28.90;99.90;;;;;;5070581;28;20416;-73
2023/06/19 11:46:08;;;;;;;0.10;0.00;;;29.10;99.90;;;;;;5067085;28;20505;-74
2023/06/19 11:48:37;;;;;;;0.10;0.00;;;29.40;99.90;;;;;;5068396;28;20459;-73
2023/06/19 11:51:03;;;;;;;0.10;0.00;;;29.40;99.90;;;;;;5077437;28;20820;-74
2023/06/19 11:53:28;;;;;;;0.10;0.00;;;29.60;99.90;;;;;;5086150;28;20520;-74
2023/06/19 11:55:55;;;;;;;0.10;0.00;;;29.70;99.90;;;;;;5069164;28;20932;-74
2023/06/19 11:58:20;;;;;;;0.10;0.00;;;29.90;99.90;;;;;;5065962;28;20263;-72
2023/06/19 12:00:46;;;;;;;0.10;0.00;;;30.60;99.90;;;;;;5069292;28;20475;-72
2023/06/19 12:03:12;;;;;;;0.00;0.00;;;30.00;99.90;;;;;;5070533;28;20178;-73
2023/06/19 12:05:37;;;;;;;0.00;0.00;;;29.20;99.90;;;;;;5080664;28;20643;-73
2023/06/19 12:08:04;;;;;;;0.00;0.00;;;29.10;99.90;;;;;;5105356;28;20242;-72
2023/06/19 12:10:30;;;;;;;0.00;0.00;;;29.30;99.90;;;;;;5071467;28;21922;-72
2023/06/19 12:12:56;;;;;;;0.00;0.00;;;29.60;99.90;;;;;;5070216;28;20443;-73
2023/06/19 12:15:21;;;;;;;0.10;0.00;;;29.30;99.90;;;;;;5088907;28;20458;-73
2023/06/19 12:17:47;;;;;;;0.10;0.00;;;28.60;99.90;;;;;;5089938;28;20679;-74
2023/06/19 12:20:15;;;;;;;0.10;0.00;;;27.90;99.90;;;;;;5069857;28;20223;-73
2023/06/19 12:22:42;;;;;;;0.10;0.00;;;27.70;99.90;;;;;;5089431;28;20934;-73
2023/06/19 12:25:08;;;;;;;0.10;0.00;;;27.40;99.90;;;;;;5087949;28;20453;-74
2023/06/19 12:27:33;;;;;;;0.10;0.00;;;27.10;99.90;;;;;;5070904;28;20431;-76
2023/06/19 12:30:00;;;;;;;0.10;0.00;;;27.10;99.90;;;;;;5089652;28;20224;-76
2023/06/19 12:32:26;;;;;;;0.10;0.00;;;27.20;99.90;;;;;;5088231;28;20250;-76
2023/06/19 12:34:53;;;;;;;0.10;0.00;;;27.50;99.90;;;;;;5092940;28;20445;-76
2023/06/19 12:37:20;;;;;;;0.10;0.00;;;28.50;99.90;;;;;;5091824;28;20177;-74
2023/06/19 12:39:46;;;;;;;0.10;0.00;;;29.60;99.90;;;;;;5104090;28;20862;-74
2023/06/19 12:42:12;;;;;;;0.10;0.00;;;29.70;99.90;;;;;;5091201;28;20521;-74
2023/06/19 12:44:39;;;;;;;0.10;0.00;;;29.40;99.90;;;;;;5101029;28;20549;-74
2023/06/19 12:47:04;;;;;;;0.10;0.00;;;29.10;99.90;;;;;;5076518;28;20189;-73